Time;durP1;ratioP1;P1;durP2;ratioP2;P2;SDS_P1;SDS_P2;PMS_P1;PMS_P2;Temp;Humidity;BMP_temperature;BMP_pressure;BME280_temperature;BME280_humidity;BME280_pressure;Samples;Min_cycle;Max_cycle;Signal;HPM_P1;HPM_P2
2023/08/10 00:00:16;;;;;;;6.00;2.10;;;16.20;99.90;;;;;;6212650;23;20009;-86
2023/08/10 00:02:44;;;;;;;4.53;2.28;;;16.20;99.90;;;;;;6212797;23;20004;-86
2023/08/10 00:05:11;;;;;;;6.00;2.78;;;16.20;99.90;;;;;;6212626;23;20001;-87
2023/08/10 00:07:37;;;;;;;7.45;3.20;;;16.20;99.90;;;;;;6212200;23;20008;-86
2023/08/10 00:10:04;;;;;;;6.78;2.58;;;16.20;99.90;;;;;;6212635;23;20074;-86
2023/08/10 00:12:29;;;;;;;3.28;2.33;;;16.20;99.90;;;;;;6212763;23;20031;-86
2023/08/10 00:14:55;;;;;;;4.45;2.55;;;16.20;99.90;;;;;;6212799;23;20430;-86
2023/08/10 00:17:21;;;;;;;5.32;2.53;;;16.30;99.90;;;;;;6212398;23;20009;-86
2023/08/10 00:19:46;;;;;;;6.05;2.15;;;16.20;99.90;;;;;;6212711;23;20036;-85
2023/08/10 00:22:13;;;;;;;9.20;2.58;;;16.20;99.90;;;;;;6211770;23;20009;-86
2023/08/10 00:24:39;;;;;;;4.47;2.30;;;16.30;99.90;;;;;;6186272;23;20063;-87
2023/08/10 00:27:06;;;;;;;4.15;1.75;;;16.30;99.90;;;;;;6185571;23;19997;-87
2023/08/10 00:29:31;;;;;;;3.42;2.00;;;16.30;99.90;;;;;;6212922;23;20024;-85
2023/08/10 00:31:57;;;;;;;7.03;2.17;;;16.30;99.90;;;;;;6212375;23;20027;-86
2023/08/10 00:34:22;;;;;;;4.72;2.05;;;16.20;99.90;;;;;;6212369;23;20000;-87
2023/08/10 00:36:48;;;;;;;2.58;1.70;;;16.30;99.90;;;;;;6185624;23;20015;-86
2023/08/10 00:39:13;;;;;;;3.90;2.17;;;16.30;99.90;;;;;;6212304;23;20004;-86
2023/08/10 00:41:39;;;;;;;3.55;2.00;;;16.30;99.90;;;;;;6212541;23;20032;-87
2023/08/10 00:44:05;;;;;;;2.25;1.80;;;16.30;99.90;;;;;;6185523;23;20426;-86
2023/08/10 00:46:31;;;;;;;4.55;2.50;;;16.30;99.90;;;;;;6212542;23;19997;-88
2023/08/10 00:48:57;;;;;;;3.50;1.73;;;16.30;99.90;;;;;;6212322;23;20075;-87
2023/08/10 00:51:24;;;;;;;4.63;2.00;;;16.30;99.90;;;;;;6211602;23;20004;-86
2023/08/10 00:53:49;;;;;;;2.53;2.15;;;16.30;99.90;;;;;;6212247;23;20059;-85
2023/08/10 00:56:16;;;;;;;5.95;2.60;;;16.30;99.90;;;;;;6212270;23;20004;-88
2023/08/10 00:58:42;;;;;;;5.35;2.60;;;16.30;99.90;;;;;;6211494;23;20476;-84
2023/08/10 01:01:08;;;;;;;2.63;1.98;;;16.30;99.90;;;;;;6210825;23;20004;-86
2023/08/10 01:03:34;;;;;;;3.55;2.38;;;16.30;99.90;;;;;;6185283;23;20126;-86
2023/08/10 01:06:18;;;;;;;3.38;2.30;;;16.30;99.90;;;;;;6185775;23;20036;-86
2023/08/10 01:09:06;;;;;;;3.88;1.80;;;16.30;99.90;;;;;;6213580;23;20000;-86
2023/08/10 01:11:48;;;;;;;2.55;1.45;;;16.40;99.90;;;;;;6213087;23;20005;-87
2023/08/10 01:14:20;;;;;;;2.97;1.98;;;16.30;99.90;;;;;;6212935;23;20005;-85
2023/08/10 01:16:49;;;;;;;2.78;1.60;;;16.40;99.90;;;;;;6213522;23;20020;-87
2023/08/10 01:19:26;;;;;;;3.35;2.08;;;16.30;99.90;;;;;;6214533;23;20068;-87
2023/08/10 01:22:07;;;;;;;5.10;1.83;;;16.30;99.90;;;;;;6217741;23;20058;-87
2023/08/10 01:24:42;;;;;;;5.25;1.85;;;16.30;99.90;;;;;;6213535;23;20456;-86
2023/08/10 01:27:13;;;;;;;3.60;2.05;;;16.40;99.90;;;;;;6212030;23;20000;-87
2023/08/10 01:29:40;;;;;;;4.03;2.95;;;16.40;99.90;;;;;;6213635;23;20054;-86
2023/08/10 01:32:12;;;;;;;2.40;1.98;;;16.30;99.90;;;;;;6192624;23;20430;-86
2023/08/10 01:34:38;;;;;;;6.35;2.65;;;16.30;99.90;;;;;;6216213;23;20077;-87
2023/08/10 01:37:04;;;;;;;3.17;2.33;;;16.30;99.90;;;;;;6219548;23;20338;-87
2023/08/10 01:39:32;;;;;;;3.47;2.65;;;16.30;99.90;;;;;;6221295;23;20011;-86
2023/08/10 01:41:58;;;;;;;3.88;2.08;;;16.40;99.90;;;;;;6215095;23;20271;-86
2023/08/10 01:44:23;;;;;;;4.80;2.38;;;16.30;99.90;;;;;;6214783;23;19997;-87
2023/08/10 01:46:52;;;;;;;3.60;2.30;;;16.30;99.90;;;;;;6214844;23;20441;-86
2023/08/10 01:49:20;;;;;;;5.80;2.63;;;16.40;99.90;;;;;;6213943;23;20330;-86
2023/08/10 01:51:48;;;;;;;4.55;2.92;;;16.40;99.90;;;;;;6215159;23;20342;-87
2023/08/10 01:54:15;;;;;;;3.63;2.45;;;16.30;99.90;;;;;;6214034;23;20320;-85
2023/08/10 01:56:42;;;;;;;5.13;2.55;;;16.30;99.90;;;;;;6214243;23;20435;-87
2023/08/10 01:59:08;;;;;;;4.75;2.92;;;16.30;99.90;;;;;;6213920;23;20462;-86
2023/08/10 02:01:33;;;;;;;3.53;2.63;;;16.30;99.90;;;;;;6187442;23;20008;-86
2023/08/10 02:03:59;;;;;;;4.65;2.72;;;16.30;99.90;;;;;;6213570;23;20001;-86
2023/08/10 02:06:24;;;;;;;5.03;3.00;;;16.20;99.90;;;;;;6213925;23;20001;-86
2023/08/10 02:08:50;;;;;;;2.55;1.88;;;16.20;99.90;;;;;;6213887;23;20054;-86
2023/08/10 02:11:15;;;;;;;6.55;3.28;;;16.20;99.90;;;;;;6214194;23;20008;-86
2023/08/10 02:13:41;;;;;;;3.70;2.78;;;16.10;99.90;;;;;;6213738;23;20330;-86
2023/08/10 02:16:07;;;;;;;4.63;2.47;;;16.00;99.90;;;;;;6213696;23;20001;-86
2023/08/10 02:18:33;;;;;;;6.03;3.00;;;15.90;99.90;;;;;;6213239;23;20318;-87
2023/08/10 02:21:00;;;;;;;4.32;2.55;;;15.90;99.90;;;;;;6214036;23;20477;-87
2023/08/10 02:23:29;;;;;;;5.20;3.03;;;15.80;99.90;;;;;;6213468;23;20012;-86
2023/08/10 02:25:54;;;;;;;4.75;3.53;;;15.80;99.90;;;;;;6214313;23;20331;-86
2023/08/10 02:28:20;;;;;;;4.82;3.30;;;15.80;99.90;;;;;;6213502;23;19997;-86
2023/08/10 02:30:45;;;;;;;4.20;2.33;;;15.70;99.90;;;;;;6214259;23;20422;-86
2023/08/10 02:33:11;;;;;;;4.88;3.22;;;15.70;99.90;;;;;;6213172;23;20009;-86
2023/08/10 02:35:36;;;;;;;5.65;3.05;;;15.70;99.90;;;;;;6213886;23;20009;-85
2023/08/10 02:38:02;;;;;;;5.88;3.30;;;15.70;99.90;;;;;;6213263;23;20469;-86
2023/08/10 02:40:27;;;;;;;5.25;3.58;;;15.70;99.90;;;;;;6213665;23;20381;-86
2023/08/10 02:42:53;;;;;;;6.28;4.10;;;15.70;99.90;;;;;;6213512;23;20323;-86
2023/08/10 02:45:19;;;;;;;5.97;4.03;;;15.70;99.90;;;;;;6213022;23;20058;-86
2023/08/10 02:47:44;;;;;;;7.80;3.50;;;15.60;99.90;;;;;;6213206;23;19997;-85
2023/08/10 02:50:13;;;;;;;6.35;3.00;;;15.60;99.90;;;;;;6186712;23;20367;-86
2023/08/10 02:52:38;;;;;;;6.28;2.75;;;15.60;99.90;;;;;;6213365;23;20011;-86
2023/08/10 02:55:04;;;;;;;4.65;2.78;;;15.60;99.90;;;;;;6213019;23;20017;-86
2023/08/10 02:57:30;;;;;;;5.75;2.45;;;15.70;99.90;;;;;;6213235;23;19997;-86
2023/08/10 02:59:56;;;;;;;3.78;3.17;;;15.70;99.90;;;;;;6213498;23;20004;-85
2023/08/10 03:02:21;;;;;;;4.28;3.80;;;15.70;99.90;;;;;;6212467;23;20013;-86
2023/08/10 03:04:47;;;;;;;5.93;3.45;;;15.70;99.90;;;;;;6213430;23;20445;-85
2023/08/10 03:07:13;;;;;;;6.03;3.10;;;15.80;99.90;;;;;;6213149;23;19996;-86
2023/08/10 03:09:41;;;;;;;3.75;3.00;;;15.80;99.90;;;;;;6213429;23;20331;-86
2023/08/10 03:12:07;;;;;;;5.15;3.33;;;15.80;99.90;;;;;;6212940;23;20015;-86
2023/08/10 03:14:33;;;;;;;5.07;3.35;;;15.80;99.90;;;;;;6213166;23;20418;-86
2023/08/10 03:16:59;;;;;;;4.53;3.33;;;15.80;99.90;;;;;;6212875;23;20034;-85
2023/08/10 03:19:24;;;;;;;5.43;2.80;;;15.80;99.90;;;;;;6212913;23;20410;-86
2023/08/10 03:21:50;;;;;;;4.90;2.63;;;15.80;99.90;;;;;;6212790;23;20080;-86
2023/08/10 03:24:16;;;;;;;5.70;2.95;;;15.80;99.90;;;;;;6211566;23;20068;-85
2023/08/10 03:26:42;;;;;;;4.45;3.15;;;15.90;99.90;;;;;;6210796;23;20039;-86
2023/08/10 03:29:07;;;;;;;3.70;3.35;;;15.90;99.90;;;;;;6210970;23;20012;-86
2023/08/10 03:31:33;;;;;;;3.20;2.80;;;15.80;99.90;;;;;;6210870;23;20095;-87
2023/08/10 03:33:58;;;;;;;3.97;3.08;;;15.80;99.90;;;;;;6211754;23;20039;-86
2023/08/10 03:36:25;;;;;;;5.57;3.15;;;15.90;99.90;;;;;;6211267;23;20308;-87
2023/08/10 03:38:50;;;;;;;3.05;2.65;;;15.90;99.90;;;;;;6215717;23;20058;-86
2023/08/10 03:41:16;;;;;;;4.55;3.38;;;15.90;99.90;;;;;;6217051;23;20036;-86
2023/08/10 03:43:41;;;;;;;3.83;2.53;;;15.90;99.90;;;;;;6218757;23;20445;-87
2023/08/10 03:46:07;;;;;;;4.28;2.92;;;15.90;99.90;;;;;;6216133;23;20024;-86
2023/08/10 03:48:33;;;;;;;4.00;2.95;;;15.90;99.90;;;;;;6213962;23;20410;-87
2023/08/10 03:50:58;;;;;;;3.72;2.88;;;15.90;99.90;;;;;;6213383;23;20449;-86
2023/08/10 03:53:24;;;;;;;4.90;2.85;;;15.80;99.90;;;;;;6212729;23;20503;-87
2023/08/10 03:55:49;;;;;;;4.53;3.03;;;15.80;99.90;;;;;;6213341;23;20008;-87
2023/08/10 03:58:15;;;;;;;4.95;3.08;;;15.80;99.90;;;;;;6212878;23;20494;-86
2023/08/10 04:00:44;;;;;;;3.67;2.75;;;15.80;99.90;;;;;;6212617;23;20012;-85
2023/08/10 04:03:11;;;;;;;6.75;2.70;;;15.70;99.90;;;;;;6186137;23;20427;-86
2023/08/10 04:05:37;;;;;;;5.45;2.63;;;15.70;99.90;;;;;;6213086;23;20080;-86
2023/08/10 04:08:03;;;;;;;5.80;3.80;;;15.70;99.90;;;;;;6216451;23;20000;-85
2023/08/10 04:10:29;;;;;;;8.20;3.65;;;15.80;99.90;;;;;;6216258;23;20070;-87
2023/08/10 04:12:55;;;;;;;5.13;3.83;;;15.70;99.90;;;;;;6216821;23;19996;-87
2023/08/10 04:15:21;;;;;;;4.30;3.78;;;15.70;99.90;;;;;;6221066;23;20048;-86
2023/08/10 04:17:46;;;;;;;5.30;4.07;;;15.80;99.90;;;;;;6213582;23;20031;-87
2023/08/10 04:20:13;;;;;;;3.38;3.08;;;15.70;99.90;;;;;;6213054;23;20370;-87
2023/08/10 04:22:39;;;;;;;4.88;3.80;;;15.70;99.90;;;;;;6213029;23;20009;-87
2023/08/10 04:25:07;;;;;;;6.00;4.07;;;15.70;99.90;;;;;;6212293;23;20063;-85
2023/08/10 04:27:33;;;;;;;7.53;4.30;;;15.70;99.90;;;;;;6212333;23;20000;-85
2023/08/10 04:29:58;;;;;;;7.53;4.53;;;15.70;99.90;;;;;;6212598;23;20071;-85
2023/08/10 04:32:24;;;;;;;5.05;3.85;;;15.60;99.90;;;;;;6212396;23;20028;-85
2023/08/10 04:34:52;;;;;;;7.00;5.03;;;15.60;99.90;;;;;;6212731;23;20016;-86
2023/08/10 04:37:18;;;;;;;9.20;4.47;;;15.60;99.90;;;;;;6212005;23;19996;-86
2023/08/10 04:39:44;;;;;;;6.85;5.10;;;15.60;99.90;;;;;;6212549;23;20001;-87
2023/08/10 04:42:10;;;;;;;5.55;4.28;;;15.60;99.90;;;;;;6211838;23;20028;-86
2023/08/10 04:44:35;;;;;;;6.55;5.05;;;15.50;99.90;;;;;;6211912;23;20007;-86
2023/08/10 04:47:01;;;;;;;7.25;4.70;;;15.50;99.90;;;;;;6212031;23;20011;-86
2023/08/10 04:49:28;;;;;;;5.13;4.63;;;15.50;99.90;;;;;;6211854;23;20031;-86
2023/08/10 04:51:57;;;;;;;5.28;4.78;;;15.50;99.90;;;;;;6211570;23;20355;-86
2023/08/10 04:54:23;;;;;;;6.15;4.85;;;15.50;99.90;;;;;;6209469;23;20071;-86
2023/08/10 04:56:49;;;;;;;5.72;4.72;;;15.50;99.90;;;;;;6185365;23;20004;-86
2023/08/10 04:59:14;;;;;;;6.20;5.07;;;15.50;99.90;;;;;;6210256;23;20000;-86
2023/08/10 05:01:40;;;;;;;5.85;4.95;;;15.60;99.90;;;;;;6212318;23;20004;-85
2023/08/10 05:04:06;;;;;;;6.95;4.47;;;15.60;99.90;;;;;;6211768;23;20004;-86
2023/08/10 05:06:34;;;;;;;6.85;4.88;;;15.70;99.90;;;;;;6211839;23;20047;-86
2023/08/10 05:09:00;;;;;;;5.10;4.20;;;15.80;99.90;;;;;;6212260;23;19997;-85
2023/08/10 05:11:26;;;;;;;7.22;4.90;;;15.80;99.90;;;;;;6211814;23;20005;-86
2023/08/10 05:13:51;;;;;;;7.30;4.20;;;16.00;99.90;;;;;;6212371;23;20005;-86
2023/08/10 05:16:17;;;;;;;6.55;4.07;;;16.00;99.90;;;;;;6211860;23;20011;-86
2023/08/10 05:18:43;;;;;;;8.27;4.18;;;16.10;99.90;;;;;;6211192;23;20005;-86
2023/08/10 05:21:08;;;;;;;8.02;5.03;;;16.10;99.90;;;;;;6211882;23;20009;-85
2023/08/10 05:23:35;;;;;;;8.68;4.97;;;16.10;99.90;;;;;;6212188;23;20014;-86
2023/08/10 05:26:01;;;;;;;6.30;5.65;;;16.20;99.90;;;;;;6211484;23;20007;-86
2023/08/10 05:28:26;;;;;;;5.47;4.63;;;16.20;99.90;;;;;;6211495;23;20004;-86
2023/08/10 05:30:52;;;;;;;6.38;5.20;;;16.30;99.90;;;;;;6211532;23;20075;-86
2023/08/10 05:33:17;;;;;;;7.50;5.13;;;16.30;99.90;;;;;;6211823;23;20075;-86
2023/08/10 05:35:43;;;;;;;6.80;5.40;;;16.30;99.90;;;;;;6212068;23;20009;-86
2023/08/10 05:38:08;;;;;;;6.18;4.43;;;16.30;99.90;;;;;;6211593;23;20444;-85
2023/08/10 05:40:34;;;;;;;5.80;4.95;;;16.30;99.90;;;;;;6211277;23;20004;-85
2023/08/10 05:43:00;;;;;;;8.32;5.28;;;16.30;99.90;;;;;;6212207;23;20001;-86
2023/08/10 05:45:26;;;;;;;6.72;5.57;;;16.30;99.90;;;;;;6211790;23;20499;-85
2023/08/10 05:47:51;;;;;;;5.43;4.93;;;16.30;99.90;;;;;;6212380;23;20008;-85
2023/08/10 05:50:18;;;;;;;8.13;5.28;;;16.30;99.90;;;;;;6211606;23;20326;-85
2023/08/10 05:52:44;;;;;;;8.00;5.55;;;16.40;99.90;;;;;;6212444;23;20004;-85
2023/08/10 05:55:11;;;;;;;5.90;5.03;;;16.40;99.90;;;;;;6211460;23;20036;-87
2023/08/10 05:57:36;;;;;;;6.10;5.28;;;16.40;99.90;;;;;;6212581;23;20005;-86
2023/08/10 06:00:03;;;;;;;9.98;5.85;;;16.40;99.90;;;;;;6212540;23;20374;-86
2023/08/10 06:02:28;;;;;;;6.97;5.70;;;16.40;99.90;;;;;;6213315;23;20315;-86
2023/08/10 06:04:54;;;;;;;6.10;5.38;;;16.40;99.90;;;;;;6214761;23;20077;-80
2023/08/10 06:07:20;;;;;;;9.50;6.50;;;16.40;99.90;;;;;;6211076;23;20001;-78
2023/08/10 06:09:46;;;;;;;6.93;6.25;;;16.40;99.90;;;;;;6211399;23;19996;-78
2023/08/10 06:12:12;;;;;;;7.68;6.03;;;16.40;99.90;;;;;;6211287;23;20079;-78
2023/08/10 06:14:38;;;;;;;7.68;6.20;;;16.40;99.90;;;;;;6211792;23;20021;-78
2023/08/10 06:17:04;;;;;;;7.15;5.85;;;16.40;99.90;;;;;;6211589;23;20004;-78
2023/08/10 06:19:31;;;;;;;6.75;6.13;;;16.50;99.90;;;;;;6213524;23;20001;-78
2023/08/10 06:21:56;;;;;;;6.00;5.10;;;16.50;99.90;;;;;;6213431;23;20019;-78
2023/08/10 06:24:22;;;;;;;6.93;5.28;;;16.50;99.90;;;;;;6212820;23;20028;-78
2023/08/10 06:26:49;;;;;;;6.72;5.28;;;16.50;99.90;;;;;;6213765;23;20012;-77
2023/08/10 06:29:15;;;;;;;9.52;5.75;;;16.50;99.90;;;;;;6186425;23;20001;-78
2023/08/10 06:31:40;;;;;;;9.75;5.75;;;16.50;99.90;;;;;;6213373;23;20011;-77
2023/08/10 06:34:06;;;;;;;9.35;5.15;;;16.60;99.90;;;;;;6213220;23;20008;-78
2023/08/10 06:36:33;;;;;;;7.30;5.15;;;16.60;99.90;;;;;;6213076;23;20008;-78
2023/08/10 06:38:59;;;;;;;5.80;4.45;;;16.60;99.90;;;;;;6213744;23;20001;-78
2023/08/10 06:41:24;;;;;;;7.38;4.57;;;16.70;99.90;;;;;;6213096;23;20331;-77
2023/08/10 06:43:50;;;;;;;4.25;3.85;;;16.70;99.90;;;;;;6210614;23;20008;-77
2023/08/10 06:46:16;;;;;;;5.32;3.97;;;16.70;99.90;;;;;;6211910;23;20001;-77
2023/08/10 06:48:41;;;;;;;8.27;3.75;;;16.70;99.90;;;;;;6212344;23;20442;-77
2023/08/10 06:51:07;;;;;;;5.53;4.30;;;16.80;99.90;;;;;;6211612;23;20012;-77
2023/08/10 06:53:33;;;;;;;6.97;3.92;;;16.80;99.90;;;;;;6212208;23;20016;-77
2023/08/10 06:55:59;;;;;;;5.18;3.70;;;16.90;99.90;;;;;;6213450;23;20004;-78
2023/08/10 06:58:25;;;;;;;5.32;4.20;;;16.90;99.90;;;;;;6212952;23;20004;-78
2023/08/10 07:00:51;;;;;;;4.28;3.88;;;17.00;99.90;;;;;;6211810;23;20001;-78
2023/08/10 07:03:16;;;;;;;5.30;4.10;;;17.00;99.90;;;;;;6212632;23;20072;-78
2023/08/10 07:05:43;;;;;;;6.50;4.35;;;17.00;99.90;;;;;;6183561;23;20004;-78
2023/08/10 07:08:09;;;;;;;6.30;3.97;;;17.10;99.90;;;;;;6212377;23;19996;-77
2023/08/10 07:10:36;;;;;;;10.88;4.25;;;17.10;99.90;;;;;;6212529;23;20009;-77
2023/08/10 07:13:01;;;;;;;4.22;3.83;;;17.10;99.90;;;;;;6213009;23;20076;-78
2023/08/10 07:15:27;;;;;;;6.22;3.60;;;17.20;99.90;;;;;;6212879;23;20464;-78
2023/08/10 07:17:53;;;;;;;8.95;3.45;;;17.20;99.90;;;;;;6212493;23;20054;-78
2023/08/10 07:20:18;;;;;;;4.80;3.58;;;17.30;99.90;;;;;;6211429;23;20000;-77
2023/08/10 07:22:48;;;;;;;5.45;2.97;;;17.30;99.90;;;;;;6210412;23;20001;-78
2023/08/10 07:25:16;;;;;;;6.55;4.15;;;17.40;99.90;;;;;;6211773;23;20028;-78
2023/08/10 07:27:43;;;;;;;6.38;3.72;;;17.40;99.90;;;;;;6212421;23;20007;-77
2023/08/10 07:30:09;;;;;;;4.57;3.53;;;17.50;99.90;;;;;;6211582;23;20075;-77
2023/08/10 07:32:36;;;;;;;5.80;3.75;;;17.60;99.90;;;;;;6212259;23;20059;-77
2023/08/10 07:35:02;;;;;;;4.47;3.50;;;17.60;99.90;;;;;;6212370;23;20001;-77
2023/08/10 07:37:28;;;;;;;5.97;3.47;;;17.70;99.90;;;;;;6211616;23;20450;-77
2023/08/10 07:39:54;;;;;;;3.60;3.30;;;17.80;99.90;;;;;;6212393;23;20000;-78
2023/08/10 07:42:19;;;;;;;2.88;2.58;;;17.90;99.90;;;;;;6211878;23;20011;-78
2023/08/10 07:44:45;;;;;;;4.50;3.00;;;17.90;99.90;;;;;;6212483;23;20012;-77
2023/08/10 07:47:10;;;;;;;5.70;3.30;;;18.00;99.90;;;;;;6212005;23;20067;-77
2023/08/10 07:49:36;;;;;;;4.65;2.63;;;18.10;99.90;;;;;;6212376;23;20088;-77
2023/08/10 07:52:02;;;;;;;5.15;3.13;;;18.20;99.90;;;;;;6211441;23;20012;-77
2023/08/10 07:54:28;;;;;;;3.60;2.70;;;18.30;99.90;;;;;;6212036;23;20009;-77
2023/08/10 07:56:53;;;;;;;4.47;2.85;;;18.40;99.90;;;;;;6212702;23;20024;-77
2023/08/10 07:59:19;;;;;;;7.22;3.20;;;18.40;99.90;;;;;;6211832;23;20055;-77
2023/08/10 08:01:44;;;;;;;5.38;3.22;;;18.50;99.90;;;;;;6212622;23;20326;-77
2023/08/10 08:04:10;;;;;;;3.88;2.75;;;18.60;99.90;;;;;;6185510;23;20386;-77
2023/08/10 08:06:36;;;;;;;3.15;2.10;;;18.70;99.90;;;;;;6211458;23;20001;-77
2023/08/10 08:09:04;;;;;;;4.15;2.13;;;18.70;99.90;;;;;;6211833;23;20027;-77
2023/08/10 08:11:30;;;;;;;3.95;2.28;;;18.80;99.60;;;;;;6211862;23;20005;-78
2023/08/10 08:13:56;;;;;;;2.05;1.58;;;18.90;99.50;;;;;;6183889;23;20544;-77
2023/08/10 08:16:21;;;;;;;3.92;2.28;;;19.00;99.30;;;;;;6211003;23;20034;-77
2023/08/10 08:18:49;;;;;;;3.92;1.85;;;19.00;98.80;;;;;;6211505;23;20303;-77
2023/08/10 08:21:19;;;;;;;3.70;2.17;;;19.10;98.60;;;;;;6210177;23;20006;-76
2023/08/10 08:23:46;;;;;;;2.67;1.63;;;19.20;98.30;;;;;;6211199;23;20062;-78
2023/08/10 08:26:14;;;;;;;9.00;1.88;;;19.20;98.10;;;;;;6210745;23;20001;-77
2023/08/10 08:28:40;;;;;;;2.55;1.38;;;19.30;97.80;;;;;;6211387;23;20001;-77
2023/08/10 08:31:06;;;;;;;3.63;1.45;;;19.30;97.40;;;;;;6210759;23;20500;-77
2023/08/10 08:33:33;;;;;;;3.08;1.00;;;19.40;97.20;;;;;;6210895;23;20007;-77
2023/08/10 08:35:59;;;;;;;2.38;1.27;;;19.50;96.90;;;;;;6210525;23;20059;-77
2023/08/10 08:38:25;;;;;;;3.90;1.30;;;19.60;96.80;;;;;;6208026;23;20009;-77
2023/08/10 08:40:52;;;;;;;2.00;1.27;;;19.60;96.70;;;;;;6207421;23;20047;-77
2023/08/10 08:43:18;;;;;;;3.83;2.17;;;19.70;96.40;;;;;;6206633;23;20004;-77
2023/08/10 08:45:45;;;;;;;2.50;1.10;;;19.80;96.20;;;;;;6207489;23;20008;-77
2023/08/10 08:48:14;;;;;;;2.45;1.13;;;19.80;95.90;;;;;;6179693;23;20004;-77
2023/08/10 08:50:40;;;;;;;2.03;1.08;;;19.80;95.70;;;;;;6207445;23;20107;-76
2023/08/10 08:53:08;;;;;;;1.98;1.20;;;19.90;95.60;;;;;;6206399;23;20149;-76
2023/08/10 08:55:34;;;;;;;1.77;0.90;;;19.90;95.30;;;;;;6207354;23;20634;-77
2023/08/10 08:58:00;;;;;;;2.88;0.88;;;20.00;95.30;;;;;;6207262;23;20040;-77
2023/08/10 09:00:25;;;;;;;2.75;1.17;;;20.20;95.20;;;;;;6206561;23;20001;-77
2023/08/10 09:02:51;;;;;;;2.47;1.25;;;20.50;94.80;;;;;;6206422;23;20406;-76
2023/08/10 09:05:18;;;;;;;2.05;0.93;;;20.70;94.30;;;;;;6206602;23;20422;-77
2023/08/10 09:07:44;;;;;;;2.15;1.35;;;20.90;94.20;;;;;;6206883;23;20009;-75
2023/08/10 09:10:09;;;;;;;2.97;1.10;;;21.10;93.90;;;;;;6206822;23;20004;-75
2023/08/10 09:12:36;;;;;;;1.92;0.90;;;21.20;93.40;;;;;;6207115;23;20430;-75
2023/08/10 09:15:11;;;;;;;2.53;0.85;;;21.30;93.30;;;;;;6206735;23;20001;-75
2023/08/10 09:17:49;;;;;;;2.45;1.10;;;21.30;93.20;;;;;;6206144;23;20031;-76
2023/08/10 09:20:25;;;;;;;1.73;0.82;;;21.40;93.10;;;;;;6207145;23;20005;-75
2023/08/10 09:22:56;;;;;;;1.83;1.20;;;21.60;92.60;;;;;;6206906;23;20081;-75
2023/08/10 09:25:23;;;;;;;2.45;0.80;;;21.90;92.40;;;;;;6206407;23;20001;-75
2023/08/10 09:27:50;;;;;;;2.20;0.93;;;22.10;92.40;;;;;;6207320;23;20076;-76
2023/08/10 09:30:17;;;;;;;2.78;1.23;;;22.30;91.90;;;;;;6206423;23;20000;-75
2023/08/10 09:32:43;;;;;;;4.00;1.23;;;22.40;91.80;;;;;;6206214;23;20009;-76
2023/08/10 09:35:30;;;;;;;4.15;1.40;;;22.50;91.60;;;;;;6206835;23;20051;-75
2023/08/10 09:38:01;;;;;;;2.03;1.33;;;22.60;91.30;;;;;;6206430;23;20005;-75
2023/08/10 09:40:27;;;;;;;2.78;1.42;;;22.60;91.20;;;;;;6206440;23;20004;-74
2023/08/10 09:42:53;;;;;;;3.17;1.00;;;22.60;91.30;;;;;;6206900;23;20001;-75
2023/08/10 09:45:19;;;;;;;1.88;1.20;;;22.70;91.20;;;;;;6206576;23;20080;-75
2023/08/10 09:47:45;;;;;;;2.50;1.27;;;22.70;91.20;;;;;;6206366;23;20096;-76
2023/08/10 09:50:13;;;;;;;2.47;1.42;;;22.80;91.30;;;;;;6206273;23;20397;-76
2023/08/10 09:52:40;;;;;;;3.42;1.50;;;22.80;91.00;;;;;;6207052;23;20005;-75
2023/08/10 09:55:08;;;;;;;1.85;1.50;;;22.80;90.90;;;;;;6208452;23;20031;-75
2023/08/10 09:57:34;;;;;;;2.38;1.67;;;22.80;90.90;;;;;;6208924;23;20532;-75
2023/08/10 10:00:00;;;;;;;3.83;1.80;;;22.70;90.80;;;;;;6208219;23;20091;-75
2023/08/10 10:02:26;;;;;;;3.00;1.63;;;22.70;91.00;;;;;;6207543;23;20050;-75
2023/08/10 10:04:52;;;;;;;3.35;1.67;;;22.60;91.10;;;;;;6208887;23;20020;-75
2023/08/10 10:07:27;;;;;;;3.78;1.88;;;22.40;91.20;;;;;;6208312;23;20038;-75
2023/08/10 10:09:59;;;;;;;5.30;2.03;;;22.40;91.30;;;;;;6209001;23;20005;-75
2023/08/10 10:12:25;;;;;;;3.63;1.85;;;22.40;91.30;;;;;;6208411;23;20023;-75
2023/08/10 10:14:51;;;;;;;1.83;1.67;;;22.40;91.20;;;;;;6208938;23;20001;-76
2023/08/10 10:17:19;;;;;;;5.25;2.15;;;22.50;91.10;;;;;;6207795;23;20054;-75
2023/08/10 10:19:48;;;;;;;3.72;2.30;;;22.70;90.80;;;;;;6208998;23;20461;-75
2023/08/10 10:22:16;;;;;;;5.65;2.40;;;22.80;90.40;;;;;;6208620;23;20009;-75
2023/08/10 10:24:42;;;;;;;2.70;2.05;;;22.80;90.10;;;;;;6208884;23;20071;-76
2023/08/10 10:27:12;;;;;;;2.13;1.38;;;22.80;90.50;;;;;;6208096;23;20493;-75
2023/08/10 10:29:49;;;;;;;2.92;2.13;;;22.70;90.60;;;;;;6208478;23;20039;-75
2023/08/10 10:32:19;;;;;;;4.20;1.88;;;22.70;90.60;;;;;;6208342;23;20005;-75
2023/08/10 10:34:46;;;;;;;1.80;1.40;;;22.60;90.40;;;;;;6181893;23;20008;-75
2023/08/10 10:37:18;;;;;;;2.22;1.17;;;22.60;90.40;;;;;;6208148;23;20111;-75
2023/08/10 10:39:45;;;;;;;4.57;2.28;;;22.60;90.20;;;;;;6181638;23;20513;-75
2023/08/10 10:42:12;;;;;;;3.58;1.20;;;22.70;89.90;;;;;;6208111;23;20052;-75
2023/08/10 10:44:58;;;;;;;1.75;1.45;;;22.80;89.80;;;;;;6207279;23;20011;-75
2023/08/10 10:47:38;;;;;;;2.80;1.75;;;22.90;89.30;;;;;;6208268;23;20007;-75
2023/08/10 10:50:17;;;;;;;2.05;1.35;;;23.10;88.30;;;;;;6207894;23;20460;-75
2023/08/10 10:53:03;;;;;;;3.70;1.77;;;23.10;87.70;;;;;;6208957;23;20078;-75
2023/08/10 10:55:34;;;;;;;2.50;1.55;;;23.00;87.50;;;;;;6210231;23;20020;-76
2023/08/10 10:58:05;;;;;;;3.03;1.30;;;23.00;87.60;;;;;;6210113;23;20043;-75
2023/08/10 11:00:31;;;;;;;3.65;1.50;;;23.00;88.90;;;;;;6208011;23;20012;-75
2023/08/10 11:02:57;;;;;;;6.10;1.98;;;23.00;88.90;;;;;;6210258;23;20116;-75
2023/08/10 11:05:24;;;;;;;3.05;1.92;;;23.00;89.30;;;;;;6209921;23;20342;-75
2023/08/10 11:07:51;;;;;;;2.50;1.90;;;23.00;89.20;;;;;;6210813;23;20004;-75
2023/08/10 11:10:18;;;;;;;3.92;1.52;;;23.00;88.70;;;;;;6210978;23;20001;-75
2023/08/10 11:12:45;;;;;;;3.05;1.80;;;22.90;88.90;;;;;;6212190;23;20008;-75
2023/08/10 11:15:13;;;;;;;1.92;1.58;;;22.90;89.30;;;;;;6210808;23;20328;-75
2023/08/10 11:17:41;;;;;;;2.30;1.20;;;22.90;88.50;;;;;;6211676;23;20013;-75
2023/08/10 11:20:13;;;;;;;2.95;1.38;;;22.90;89.30;;;;;;6211487;23;20004;-76
2023/08/10 11:22:40;;;;;;;;;;;22.90;88.40;;;;;;6212007;23;20008;-75
2023/08/10 11:25:10;;;;;;;1.80;1.25;;;23.00;88.40;;;;;;6211585;23;20207;-75
2023/08/10 11:27:37;;;;;;;2.78;1.40;;;22.90;88.70;;;;;;6211396;23;20305;-73
2023/08/10 11:30:05;;;;;;;1.67;1.40;;;22.90;88.20;;;;;;6210831;23;20004;-76
2023/08/10 11:32:30;;;;;;;3.55;1.13;;;23.00;87.60;;;;;;6211460;23;20000;-76
2023/08/10 11:34:57;;;;;;;1.88;1.33;;;23.00;87.40;;;;;;6211666;23;20003;-76
2023/08/10 11:37:33;;;;;;;2.15;1.48;;;23.00;87.40;;;;;;6210573;23;20004;-76
2023/08/10 11:40:05;;;;;;;2.03;1.10;;;23.00;87.50;;;;;;6184007;23;20001;-76
2023/08/10 11:42:41;;;;;;;2.75;1.13;;;23.10;87.40;;;;;;6210460;23;20015;-76
2023/08/10 11:45:20;;;;;;;3.28;2.05;;;23.00;86.90;;;;;;6210814;23;20319;-76
2023/08/10 11:47:53;;;;;;;2.90;1.27;;;22.90;86.90;;;;;;6211739;23;20499;-76
2023/08/10 11:50:21;;;;;;;1.63;1.13;;;22.90;86.90;;;;;;6211112;23;20370;-76
2023/08/10 11:52:49;;;;;;;3.70;1.23;;;22.90;87.00;;;;;;6210538;23;20004;-75
2023/08/10 11:55:16;;;;;;;2.00;1.05;;;22.90;87.60;;;;;;6209870;23;20062;-76
2023/08/10 11:57:43;;;;;;;1.25;0.93;;;22.90;87.60;;;;;;6210629;23;20083;-76
2023/08/10 12:00:35;;;;;;;2.83;1.35;;;22.90;87.20;;;;;;6210914;23;20287;-76
2023/08/10 12:03:11;;;;;;;3.42;1.52;;;22.90;86.50;;;;;;6204761;23;20009;-76
2023/08/10 12:05:42;;;;;;;5.40;1.40;;;22.90;86.90;;;;;;6210706;23;20162;-76
2023/08/10 12:08:14;;;;;;;3.05;1.70;;;22.90;87.00;;;;;;6210770;23;20084;-77
2023/08/10 12:10:51;;;;;;;3.25;1.33;;;22.90;86.30;;;;;;6210870;23;20003;-77
2023/08/10 12:13:17;;;;;;;1.92;1.10;;;22.90;86.20;;;;;;6210613;23;20005;-77
2023/08/10 12:15:46;;;;;;;1.83;1.08;;;22.90;86.30;;;;;;6210178;23;20007;-77
2023/08/10 12:18:12;;;;;;;2.45;1.60;;;22.80;86.90;;;;;;6210860;23;20327;-77
2023/08/10 12:20:38;;;;;;;3.17;1.25;;;22.90;87.00;;;;;;6210978;23;20001;-77
2023/08/10 12:23:03;;;;;;;1.52;1.15;;;22.90;87.10;;;;;;6211013;23;20369;-78
2023/08/10 12:25:29;;;;;;;1.63;1.42;;;23.00;86.90;;;;;;6211154;23;20004;-77
2023/08/10 12:27:55;;;;;;;3.28;1.10;;;23.00;86.80;;;;;;6183605;23;20009;-78
2023/08/10 12:30:21;;;;;;;1.83;1.60;;;23.00;86.70;;;;;;6210839;23;20032;-78
2023/08/10 12:32:47;;;;;;;3.30;1.83;;;23.00;87.00;;;;;;6184284;23;20104;-79
2023/08/10 12:35:14;;;;;;;3.65;1.58;;;23.10;86.20;;;;;;6211059;23;20370;-78
2023/08/10 12:37:40;;;;;;;2.72;1.92;;;23.20;85.90;;;;;;6210856;23;20000;-79
2023/08/10 12:40:08;;;;;;;3.38;1.45;;;23.20;85.40;;;;;;6210032;23;20063;-78
2023/08/10 12:42:33;;;;;;;2.30;1.63;;;23.20;85.60;;;;;;6208735;23;20004;-79
2023/08/10 12:44:59;;;;;;;1.67;1.40;;;23.30;86.10;;;;;;6209824;23;20126;-78
2023/08/10 12:47:24;;;;;;;4.50;2.17;;;23.40;86.30;;;;;;6210057;23;19996;-79